Sign-in with your pilot id or email, or register

ICAO: BIKF Name / Country: Keflavik / Iceland
Latitude: 63.985 Longitude: -22.6056
Total Arrivals:
Strict Standards: Non-static method AirportData::getarrflights() should not be called statically, assuming $this from incompatible context in /var/www/customers/vh-7192/web/home/phpvms/core/templates/airport_info.tpl on line 18
1
Total Departures:
Strict Standards: Non-static method AirportData::getdeptflights() should not be called statically, assuming $this from incompatible context in /var/www/customers/vh-7192/web/home/phpvms/core/templates/airport_info.tpl on line 21
1
Latest Arrival: MTA11P (CYHZ-BIKF) Tibor Berces Latest Departure: MTA11P (BIKF-EGCC) Tibor Berces
Metar: BIKF 172300Z 09008KT 9999 BKN037 OVC140 08/03 Q1023
More info

Charts for BIKF


NOTAM


Warning: file_get_contents(http://api.vateud.net/notams/BIKF.json): failed to open stream: Redirection limit reached, aborting in /var/www/customers/vh-7192/web/home/phpvms/core/common/NOTAMSData.class.php on line 18

Warning: Invalid argument supplied for foreach() in /var/www/customers/vh-7192/web/home/phpvms/core/common/NOTAMSData.class.php on line 22

Keflavik